createdAt,value
2023-05-08T00:01:45.773Z,65.79
2023-05-08T00:04:16.089Z,65.85
2023-05-08T00:06:46.689Z,66.02
2023-05-08T00:09:16.969Z,65.75
2023-05-08T00:11:47.257Z,65.92
2023-05-08T00:14:18.062Z,65.67
2023-05-08T00:16:54.226Z,65.58
2023-05-08T00:19:24.758Z,65.83
2023-05-08T00:21:55.237Z,65.50
2023-05-08T00:24:28.687Z,65.39
2023-05-08T00:27:00.815Z,65.43
2023-05-08T00:29:31.123Z,65.67
2023-05-08T00:32:04.049Z,65.94
2023-05-08T00:34:34.403Z,65.72
2023-05-08T00:37:04.750Z,65.54
2023-05-08T00:39:34.972Z,65.38
2023-05-08T00:42:05.698Z,65.54
2023-05-08T00:44:36.196Z,65.66
2023-05-08T00:47:12.462Z,65.96
2023-05-08T00:49:42.937Z,65.78
2023-05-08T00:52:13.551Z,65.56
2023-05-08T00:54:44.293Z,65.56
2023-05-08T00:57:15.470Z,66.00
2023-05-08T00:59:47.367Z,65.87
2023-05-08T01:02:21.228Z,65.91
2023-05-08T01:04:51.897Z,66.01
2023-05-08T01:07:22.332Z,65.90
2023-05-08T01:09:52.630Z,65.83
2023-05-08T01:12:30.125Z,65.91
2023-05-08T01:15:12.143Z,66.02
2023-05-08T01:17:57.005Z,65.99
2023-05-08T01:20:38.898Z,66.19
2023-05-08T01:23:38.501Z,66.02
2023-05-08T01:26:41.027Z,66.15
2023-05-08T01:29:46.955Z,66.11
2023-05-08T01:32:25.430Z,66.56
2023-05-08T01:35:06.367Z,66.70
2023-05-08T01:37:42.448Z,66.94
2023-05-08T01:40:21.325Z,66.66
2023-05-08T01:43:11.528Z,66.62
2023-05-08T01:45:43.956Z,66.43
2023-05-08T01:48:20.923Z,66.37
2023-05-08T01:50:52.855Z,66.20
2023-05-08T01:53:26.640Z,66.00
2023-05-08T01:56:01.503Z,66.64
2023-05-08T01:58:32.487Z,66.92
2023-05-08T02:01:04.403Z,67.04
2023-05-08T02:03:38.538Z,67.42
2023-05-08T02:06:11.619Z,67.42
2023-05-08T02:08:41.895Z,67.42
2023-05-08T02:11:13.754Z,67.13
2023-05-08T02:13:48.701Z,67.16
2023-05-08T02:16:19.997Z,67.44
2023-05-08T02:18:55.697Z,67.92
2023-05-08T02:21:26.959Z,67.85
2023-05-08T02:23:57.989Z,68.13
2023-05-08T02:26:28.780Z,68.01
2023-05-08T02:29:00.552Z,67.74
2023-05-08T02:31:31.291Z,67.37
2023-05-08T02:34:04.570Z,68.00
2023-05-08T02:36:35.558Z,68.13
2023-05-08T02:39:06.550Z,68.26
2023-05-08T02:41:37.354Z,68.15
2023-05-08T02:44:08.053Z,68.21
2023-05-08T02:46:42.950Z,67.86
2023-05-08T02:49:26.721Z,67.63
2023-05-08T02:52:00.971Z,67.71
2023-05-08T02:54:40.116Z,67.61
2023-05-08T02:57:17.857Z,67.91
2023-05-08T02:59:52.123Z,67.79
2023-05-08T03:02:31.811Z,67.93
2023-05-08T03:05:08.862Z,67.94
2023-05-08T03:07:42.104Z,67.70
2023-05-08T03:10:17.671Z,68.01
2023-05-08T03:12:49.903Z,67.76
2023-05-08T03:15:27.538Z,67.96
2023-05-08T03:18:03.663Z,67.99
2023-05-08T03:20:40.673Z,67.96
2023-05-08T03:23:12.760Z,68.02
2023-05-08T03:25:47.464Z,67.92
2023-05-08T03:28:19.663Z,67.94
2023-05-08T03:30:51.163Z,68.20
2023-05-08T03:33:21.627Z,67.86
2023-05-08T03:35:56.649Z,67.78
2023-05-08T03:38:27.309Z,67.91
2023-05-08T03:40:57.611Z,67.70
2023-05-08T03:43:28.810Z,67.92
2023-05-08T03:46:02.251Z,67.90
2023-05-08T03:48:36.237Z,68.06
2023-05-08T03:51:09.564Z,67.78
2023-05-08T03:53:41.370Z,67.67
2023-05-08T03:56:11.658Z,67.40
2023-05-08T03:58:46.522Z,67.32
2023-05-08T04:01:22.382Z,67.22
2023-05-08T04:03:59.730Z,67.37
2023-05-08T04:06:49.408Z,67.62
2023-05-08T04:09:31.054Z,67.32
2023-05-08T04:12:06.855Z,66.99
2023-05-08T04:14:43.531Z,66.99
2023-05-08T04:17:17.628Z,67.29
2023-05-08T04:19:50.223Z,67.19
2023-05-08T04:22:23.700Z,66.80
2023-05-08T04:24:55.799Z,67.08
2023-05-08T04:27:26.858Z,67.60
2023-05-08T04:29:57.623Z,66.66
2023-05-08T04:32:28.532Z,66.54
2023-05-08T04:34:59.261Z,66.41
2023-05-08T04:37:33.653Z,66.50
2023-05-08T04:40:07.055Z,66.27
2023-05-08T04:42:38.963Z,65.82
2023-05-08T04:45:10.885Z,65.94
2023-05-08T04:47:41.361Z,65.72
2023-05-08T04:50:13.042Z,65.85
2023-05-08T04:52:45.928Z,65.32
2023-05-08T04:55:16.075Z,65.30
2023-05-08T04:57:46.837Z,68.09
2023-05-08T05:00:18.710Z,68.06
2023-05-08T05:02:50.168Z,65.63
2023-05-08T05:05:20.979Z,65.52
2023-05-08T05:07:54.190Z,65.99
2023-05-08T05:10:24.966Z,64.39
2023-05-08T05:12:55.164Z,63.41
2023-05-08T05:15:25.590Z,63.10
2023-05-08T05:17:56.182Z,62.45
2023-05-08T05:20:26.526Z,62.44
2023-05-08T05:22:59.607Z,62.13
2023-05-08T05:25:32.450Z,61.71
2023-05-08T05:28:03.575Z,61.22
2023-05-08T05:30:33.793Z,61.19
2023-05-08T05:33:04.787Z,60.87
2023-05-08T05:35:35.168Z,60.65
2023-05-08T05:38:08.464Z,60.56
2023-05-08T05:40:39.252Z,60.82
2023-05-08T05:43:11.269Z,60.27
2023-05-08T05:45:41.593Z,59.90
2023-05-08T05:48:12.409Z,59.34
2023-05-08T05:50:43.817Z,59.52
2023-05-08T05:53:16.876Z,59.49
2023-05-08T05:55:47.202Z,59.59
2023-05-08T05:58:17.622Z,59.30
2023-05-08T06:00:48.775Z,59.53
2023-05-08T06:03:21.145Z,58.91
2023-05-08T06:05:54.334Z,57.87
2023-05-08T06:08:28.222Z,57.51
2023-05-08T06:10:59.627Z,57.90
2023-05-08T06:13:30.477Z,57.76
2023-05-08T06:16:04.221Z,56.62
2023-05-08T06:18:34.501Z,56.18
2023-05-08T06:21:04.703Z,56.26
2023-05-08T06:23:37.499Z,55.60
2023-05-08T06:26:07.983Z,55.33
2023-05-08T06:28:40.032Z,55.33
2023-05-08T06:31:10.322Z,55.02
2023-05-08T06:33:40.525Z,54.36
2023-05-08T06:36:11.379Z,54.13
2023-05-08T06:38:44.602Z,55.37
2023-05-08T06:41:16.542Z,55.53
2023-05-08T06:43:46.886Z,52.06
2023-05-08T06:46:17.154Z,52.04
2023-05-08T06:48:47.391Z,51.57
2023-05-08T06:51:23.333Z,50.71
2023-05-08T06:53:59.315Z,52.09
2023-05-08T06:56:29.746Z,51.22
2023-05-08T06:59:07.966Z,51.48
2023-05-08T07:01:38.911Z,49.59
2023-05-08T07:04:09.281Z,50.84
2023-05-08T07:06:39.562Z,48.37
2023-05-08T07:09:13.251Z,47.64
2023-05-08T07:11:43.737Z,49.00
2023-05-08T07:14:13.949Z,48.59
2023-05-08T07:16:44.170Z,47.60
2023-05-08T07:19:14.745Z,47.05
2023-05-08T07:21:46.499Z,47.70
2023-05-08T07:24:21.277Z,47.07
2023-05-08T07:26:51.792Z,44.77
2023-05-08T07:29:21.947Z,46.33
2023-05-08T07:31:54.409Z,45.78
2023-05-08T07:34:24.589Z,45.13
2023-05-08T07:36:54.719Z,44.40
2023-05-08T07:39:27.507Z,42.07
2023-05-08T07:41:57.744Z,42.69
2023-05-08T07:44:27.933Z,43.92
2023-05-08T07:46:58.458Z,42.52
2023-05-08T07:49:29.019Z,41.83
2023-05-08T07:51:59.215Z,43.03
2023-05-08T07:54:32.037Z,42.16
2023-05-08T07:57:02.148Z,41.14
2023-05-08T07:59:32.373Z,40.06
2023-05-08T08:02:02.572Z,40.26
2023-05-08T08:04:34.932Z,38.78
2023-05-08T08:07:05.200Z,38.09
2023-05-08T08:09:38.040Z,37.10
2023-05-08T08:12:08.419Z,37.16
2023-05-08T08:14:39.190Z,35.58
2023-05-08T08:17:12.180Z,37.49
2023-05-08T08:19:42.551Z,34.16
2023-05-08T08:22:12.824Z,35.91
2023-05-08T08:24:45.700Z,32.57
2023-05-08T08:27:20.979Z,31.99
2023-05-08T08:29:58.539Z,34.48
2023-05-08T08:32:36.292Z,31.61
2023-05-08T08:35:06.894Z,30.07
2023-05-08T08:37:37.228Z,29.86
2023-05-08T08:40:11.618Z,29.56
2023-05-08T08:42:42.223Z,27.76
2023-05-08T08:45:13.877Z,27.68
2023-05-08T08:47:50.404Z,27.74
2023-05-08T08:50:23.201Z,27.41
2023-05-08T08:53:00.024Z,28.19
2023-05-08T08:55:33.773Z,27.11
2023-05-08T08:58:18.453Z,27.53
2023-05-08T09:00:49.277Z,26.85
2023-05-08T09:03:19.793Z,26.94
2023-05-08T09:05:51.385Z,25.14
2023-05-08T09:08:21.969Z,25.24
2023-05-08T09:10:58.828Z,26.43
2023-05-08T09:13:30.656Z,27.06
2023-05-08T09:16:01.568Z,26.65
2023-05-08T09:18:34.143Z,27.05
2023-05-08T09:21:06.393Z,26.80
2023-05-08T09:23:41.563Z,26.61
2023-05-08T09:26:14.396Z,25.52
2023-05-08T09:28:44.732Z,25.56
2023-05-08T09:31:15.057Z,25.28
2023-05-08T09:33:47.883Z,25.65
2023-05-08T09:36:32.279Z,25.49
2023-05-08T09:39:02.682Z,25.46
2023-05-08T09:41:35.708Z,25.94
2023-05-08T09:44:07.365Z,25.88
2023-05-08T09:46:38.360Z,24.99
2023-05-08T09:49:08.592Z,24.93
2023-05-08T09:51:40.890Z,24.98
2023-05-08T09:54:23.823Z,25.25
2023-05-08T09:56:56.812Z,24.85
2023-05-08T09:59:30.414Z,25.17
2023-05-08T10:02:01.828Z,25.10
2023-05-08T10:04:35.741Z,23.95
2023-05-08T10:07:06.371Z,24.69
2023-05-08T10:09:47.515Z,24.76
2023-05-08T10:12:24.605Z,24.37
2023-05-08T10:14:55.271Z,25.28
2023-05-08T10:17:30.118Z,25.00
2023-05-08T10:20:04.057Z,24.55
2023-05-08T10:22:36.656Z,24.80
2023-05-08T10:25:07.778Z,24.36
2023-05-08T10:27:44.883Z,24.30
2023-05-08T10:30:20.676Z,24.97
2023-05-08T10:32:56.382Z,24.50
2023-05-08T10:35:27.248Z,24.90
2023-05-08T10:37:59.556Z,24.13
2023-05-08T10:40:30.029Z,23.73
2023-05-08T10:43:03.715Z,23.81
2023-05-08T10:45:34.606Z,23.42
2023-05-08T10:48:11.946Z,24.19
2023-05-08T10:50:47.635Z,25.17
2023-05-08T10:53:22.526Z,24.55
2023-05-08T10:55:54.511Z,24.02
2023-05-08T10:58:40.548Z,23.83
2023-05-08T11:01:15.650Z,23.14
2023-05-08T11:03:48.161Z,23.59
2023-05-08T11:06:21.164Z,22.80
2023-05-08T11:08:55.419Z,22.07
2023-05-08T11:11:29.859Z,21.97
2023-05-08T11:14:15.429Z,21.17
2023-05-08T11:17:06.825Z,20.39
2023-05-08T11:19:37.872Z,19.81
2023-05-08T11:22:27.326Z,19.95
2023-05-08T11:25:00.209Z,21.11
2023-05-08T11:27:45.138Z,21.50
2023-05-08T11:30:42.267Z,21.17
2023-05-08T11:33:20.226Z,22.05
2023-05-08T11:35:59.337Z,21.72
2023-05-08T11:38:36.378Z,22.12
2023-05-08T11:41:08.832Z,22.38
2023-05-08T11:44:15.202Z,21.03
2023-05-08T11:46:56.451Z,20.53
2023-05-08T11:49:30.270Z,19.94
2023-05-08T11:52:07.058Z,19.87
2023-05-08T11:54:37.717Z,18.81
2023-05-08T11:57:10.682Z,20.01
2023-05-08T11:59:41.332Z,19.36
2023-05-08T12:02:15.585Z,19.49
2023-05-08T12:04:49.455Z,19.11
2023-05-08T12:07:20.778Z,18.65
2023-05-08T12:09:54.067Z,18.43
2023-05-08T12:12:24.524Z,17.06
2023-05-08T12:14:54.776Z,15.55
2023-05-08T12:17:27.668Z,16.54
2023-05-08T12:20:04.329Z,17.43
2023-05-08T12:22:34.971Z,18.73
2023-05-08T12:25:07.096Z,17.88
2023-05-08T12:27:37.409Z,15.14
2023-05-08T12:30:15.439Z,13.64
2023-05-08T12:32:52.248Z,14.25
2023-05-08T12:35:22.808Z,13.28
2023-05-08T12:37:55.018Z,13.82
2023-05-08T12:40:30.015Z,14.08
2023-05-08T12:43:01.126Z,14.41
2023-05-08T12:45:33.929Z,13.12
2023-05-08T12:48:08.798Z,13.56
2023-05-08T12:50:40.352Z,13.53
2023-05-08T12:53:11.733Z,13.01
2023-05-08T12:55:45.839Z,12.58
2023-05-08T12:58:16.973Z,12.82
2023-05-08T13:00:48.224Z,12.64
2023-05-08T13:03:26.430Z,12.83
2023-05-08T13:05:57.923Z,12.68
2023-05-08T13:08:33.148Z,12.50
2023-05-08T13:11:04.931Z,12.29
2023-05-08T13:13:37.044Z,11.94
2023-05-08T13:16:09.386Z,12.77
2023-05-08T13:18:45.512Z,12.21
2023-05-08T13:21:16.435Z,12.45
2023-05-08T13:23:46.582Z,11.98
2023-05-08T13:26:16.684Z,12.42
2023-05-08T13:28:46.828Z,12.17
2023-05-08T13:31:17.058Z,12.87
2023-05-08T13:33:49.839Z,12.47
2023-05-08T13:36:20.865Z,13.77
2023-05-08T13:38:51.683Z,13.19
2023-05-08T13:41:22.334Z,13.53
2023-05-08T13:43:52.477Z,13.54
2023-05-08T13:46:22.870Z,13.69
2023-05-08T13:48:55.803Z,13.35
2023-05-08T13:51:26.561Z,13.76
2023-05-08T13:53:56.823Z,13.78
2023-05-08T13:56:27.067Z,13.94
2023-05-08T13:58:57.219Z,14.50
2023-05-08T14:01:28.054Z,14.32
2023-05-08T14:04:01.034Z,15.52
2023-05-08T14:06:31.425Z,15.92
2023-05-08T14:09:01.645Z,16.39
2023-05-08T14:11:32.167Z,16.67
2023-05-08T14:14:02.369Z,16.76
2023-05-08T14:16:33.156Z,17.64
2023-05-08T14:19:06.094Z,17.30
2023-05-08T14:21:37.008Z,16.94
2023-05-08T14:24:09.093Z,17.04
2023-05-08T14:26:39.665Z,16.75
2023-05-08T14:29:09.894Z,16.50
2023-05-08T14:31:40.019Z,16.54
2023-05-08T14:34:12.854Z,16.64
2023-05-08T14:36:43.107Z,16.90
2023-05-08T14:39:13.264Z,17.24
2023-05-08T14:41:54.998Z,17.12
2023-05-08T14:44:33.748Z,17.38
2023-05-08T14:47:03.969Z,16.31
2023-05-08T14:49:38.437Z,17.53
2023-05-08T14:52:09.079Z,18.04
2023-05-08T14:54:39.621Z,18.47
2023-05-08T14:57:09.999Z,16.99
2023-05-08T14:59:49.011Z,17.04
2023-05-08T15:02:22.637Z,16.60
2023-05-08T15:04:55.906Z,16.08
2023-05-08T15:07:26.101Z,15.18
2023-05-08T15:09:56.326Z,14.63
2023-05-08T15:12:26.455Z,15.74
2023-05-08T15:14:56.680Z,15.67
2023-05-08T15:17:26.872Z,16.10
2023-05-08T15:19:59.733Z,19.29
2023-05-08T15:22:29.869Z,19.93
2023-05-08T15:25:02.747Z,20.55
2023-05-08T15:27:33.316Z,20.60
2023-05-08T15:30:03.717Z,20.75
2023-05-08T15:32:34.741Z,22.31
2023-05-08T15:35:08.384Z,20.91
2023-05-08T15:37:39.274Z,22.16
2023-05-08T15:40:13.097Z,22.77
2023-05-08T15:42:43.178Z,22.21
2023-05-08T15:45:13.842Z,21.74
2023-05-08T15:47:44.104Z,23.13
2023-05-08T15:50:17.742Z,23.38
2023-05-08T15:52:47.872Z,22.49
2023-05-08T15:55:18.173Z,23.86
2023-05-08T15:57:48.300Z,23.76
2023-05-08T16:00:20.126Z,24.13
2023-05-08T16:02:50.468Z,24.58
2023-05-08T16:05:23.230Z,23.65
2023-05-08T16:07:54.490Z,23.93
2023-05-08T16:10:24.601Z,23.96
2023-05-08T16:12:54.764Z,24.59
2023-05-08T16:15:24.972Z,24.17
2023-05-08T16:17:55.082Z,24.51
2023-05-08T16:20:28.147Z,24.67
2023-05-08T16:22:58.471Z,24.20
2023-05-08T16:25:28.824Z,23.79
2023-05-08T16:27:58.957Z,25.37
2023-05-08T16:30:29.100Z,24.77
2023-05-08T16:32:59.233Z,25.27
2023-05-08T16:35:33.498Z,25.37
2023-05-08T16:38:04.980Z,24.96
2023-05-08T16:40:35.044Z,25.61
2023-05-08T16:43:05.182Z,25.76
2023-05-08T16:45:35.614Z,26.27
2023-05-08T16:48:05.760Z,25.95
2023-05-08T16:50:38.487Z,26.29
2023-05-08T16:53:08.789Z,26.34
2023-05-08T16:55:38.959Z,26.86
2023-05-08T16:58:10.091Z,26.21
2023-05-08T17:00:40.206Z,26.02
2023-05-08T17:03:10.342Z,26.57
2023-05-08T17:05:43.158Z,26.62
2023-05-08T17:08:15.612Z,26.82
2023-05-08T17:10:45.699Z,27.07
2023-05-08T17:13:15.807Z,27.06
2023-05-08T17:15:46.019Z,27.06
2023-05-08T17:18:16.116Z,27.87
2023-05-08T17:20:48.809Z,27.54
2023-05-08T17:23:18.861Z,27.78
2023-05-08T17:25:48.954Z,27.52
2023-05-08T17:28:19.158Z,28.42
2023-05-08T17:30:49.179Z,27.68
2023-05-08T17:33:19.848Z,28.05
2023-05-08T17:35:52.592Z,27.97
2023-05-08T17:38:22.756Z,28.37
2023-05-08T17:40:53.296Z,28.67
2023-05-08T17:43:23.426Z,28.78
2023-05-08T17:45:53.564Z,28.98
2023-05-08T17:48:23.657Z,29.23
2023-05-08T17:50:56.591Z,29.38
2023-05-08T17:53:26.677Z,28.92
2023-05-08T17:55:56.746Z,29.19
2023-05-08T17:58:26.980Z,29.66
2023-05-08T18:00:57.255Z,30.20
2023-05-08T18:03:27.715Z,30.77
2023-05-08T18:06:00.487Z,30.81
2023-05-08T18:08:30.650Z,30.47
2023-05-08T18:11:00.745Z,30.77
2023-05-08T18:13:30.778Z,31.18
2023-05-08T18:16:00.916Z,30.66
2023-05-08T18:18:31.047Z,29.98
2023-05-08T18:21:03.759Z,30.08
2023-05-08T18:23:33.985Z,29.40
2023-05-08T18:26:04.276Z,29.22
2023-05-08T18:28:36.245Z,29.69
2023-05-08T18:31:06.412Z,29.46
2023-05-08T18:33:37.308Z,29.42
2023-05-08T18:36:10.323Z,29.74
2023-05-08T18:38:41.802Z,30.61
2023-05-08T18:41:11.921Z,30.37
2023-05-08T18:43:42.125Z,30.53
2023-05-08T18:46:13.486Z,30.79
2023-05-08T18:48:44.023Z,31.61
2023-05-08T18:51:16.733Z,31.48
2023-05-08T18:53:46.884Z,31.41
2023-05-08T18:56:16.980Z,31.68
2023-05-08T18:58:47.124Z,32.11
2023-05-08T19:01:20.239Z,32.49
2023-05-08T19:03:51.192Z,32.87
2023-05-08T19:06:24.017Z,32.84
2023-05-08T19:08:57.087Z,33.29
2023-05-08T19:11:27.395Z,33.57
2023-05-08T19:13:57.940Z,33.82
2023-05-08T19:16:28.093Z,33.99
2023-05-08T19:18:58.480Z,34.10
2023-05-08T19:21:32.170Z,34.15
2023-05-08T19:24:02.458Z,34.46
2023-05-08T19:26:32.795Z,34.20
2023-05-08T19:29:03.014Z,34.28
2023-05-08T19:31:33.167Z,34.12
2023-05-08T19:34:03.427Z,34.33
2023-05-08T19:36:37.783Z,34.41
2023-05-08T19:39:08.291Z,34.80
2023-05-08T19:41:38.458Z,34.38
2023-05-08T19:44:08.761Z,34.60
2023-05-08T19:46:39.262Z,34.93
2023-05-08T19:49:10.191Z,35.48
2023-05-08T19:51:42.968Z,34.95
2023-05-08T19:54:13.283Z,34.81
2023-05-08T19:56:43.562Z,35.21
2023-05-08T19:59:14.078Z,34.74
2023-05-08T20:01:44.248Z,34.66
2023-05-08T20:04:14.484Z,35.48
2023-05-08T20:06:47.274Z,35.24
2023-05-08T20:09:17.439Z,35.99
2023-05-08T20:11:47.643Z,36.87
2023-05-08T20:14:17.730Z,37.29
2023-05-08T20:16:47.855Z,37.99
2023-05-08T20:19:18.063Z,38.12
2023-05-08T20:21:50.937Z,39.29
2023-05-08T20:24:21.196Z,39.11
2023-05-08T20:26:54.424Z,39.08
2023-05-08T20:29:24.894Z,39.88
2023-05-08T20:31:55.428Z,39.69
2023-05-08T20:34:25.680Z,40.08
2023-05-08T20:36:59.459Z,39.39
2023-05-08T20:39:29.643Z,40.60
2023-05-08T20:41:59.836Z,39.20
2023-05-08T20:44:30.034Z,40.22
2023-05-08T20:47:00.249Z,40.58
2023-05-08T20:49:30.336Z,40.75
2023-05-08T20:52:03.172Z,40.31
2023-05-08T20:54:33.314Z,39.52
2023-05-08T20:57:03.714Z,38.75
2023-05-08T20:59:33.892Z,38.74
2023-05-08T21:02:04.058Z,38.73
2023-05-08T21:04:34.208Z,38.83
2023-05-08T21:07:07.030Z,38.83
2023-05-08T21:09:37.240Z,39.19
2023-05-08T21:12:07.933Z,39.23
2023-05-08T21:14:38.745Z,39.35
2023-05-08T21:17:08.856Z,39.34
2023-05-08T21:19:39.045Z,39.41
2023-05-08T21:22:13.992Z,40.05
2023-05-08T21:24:46.131Z,40.13
2023-05-08T21:27:16.309Z,40.05
2023-05-08T21:29:46.534Z,39.84
2023-05-08T21:32:16.602Z,40.38
2023-05-08T21:34:46.823Z,40.29
2023-05-08T21:37:19.593Z,39.98
2023-05-08T21:39:51.852Z,39.97
2023-05-08T21:42:22.044Z,40.60
2023-05-08T21:44:52.204Z,40.38
2023-05-08T21:47:23.108Z,40.37
2023-05-08T21:49:53.250Z,40.63
2023-05-08T21:52:26.646Z,40.51
2023-05-08T21:54:56.841Z,40.96
2023-05-08T21:57:27.040Z,41.01
2023-05-08T21:59:57.327Z,40.57
2023-05-08T22:02:27.485Z,40.74
2023-05-08T22:04:57.739Z,41.30
2023-05-08T22:07:30.617Z,42.20
2023-05-08T22:10:00.846Z,41.68
2023-05-08T22:12:31.020Z,40.95
2023-05-08T22:15:01.156Z,41.00
2023-05-08T22:17:31.408Z,41.49
2023-05-08T22:20:01.586Z,41.91
2023-05-08T22:22:34.410Z,42.34
2023-05-08T22:25:04.545Z,42.08
2023-05-08T22:27:34.731Z,42.00
2023-05-08T22:30:04.969Z,42.42
2023-05-08T22:32:35.234Z,42.42
2023-05-08T22:35:05.447Z,42.62
2023-05-08T22:37:38.209Z,42.85
2023-05-08T22:40:10.252Z,42.54
2023-05-08T22:42:41.018Z,42.65
2023-05-08T22:45:13.549Z,42.69
2023-05-08T22:47:44.078Z,42.75
2023-05-08T22:50:14.485Z,43.09
2023-05-08T22:52:47.254Z,43.20
2023-05-08T22:55:18.253Z,43.22
2023-05-08T22:57:48.498Z,43.43
2023-05-08T23:00:19.292Z,43.57
2023-05-08T23:02:49.464Z,43.73
2023-05-08T23:05:19.787Z,43.14
2023-05-08T23:07:52.626Z,43.62
2023-05-08T23:10:23.028Z,44.01
2023-05-08T23:12:53.180Z,43.90
2023-05-08T23:15:24.015Z,43.71
2023-05-08T23:17:54.433Z,43.47
2023-05-08T23:20:27.065Z,43.49
2023-05-08T23:23:02.072Z,43.51
2023-05-08T23:25:32.236Z,43.74
2023-05-08T23:28:02.384Z,43.80
2023-05-08T23:30:32.498Z,44.07
2023-05-08T23:33:02.710Z,44.37
2023-05-08T23:35:32.917Z,44.79
2023-05-08T23:38:05.737Z,44.23
2023-05-08T23:40:35.944Z,44.50
2023-05-08T23:43:06.388Z,44.80
2023-05-08T23:45:36.550Z,44.57
2023-05-08T23:48:07.435Z,44.46
2023-05-08T23:50:37.667Z,44.71
2023-05-08T23:53:10.457Z,44.79
2023-05-08T23:55:40.917Z,45.22
2023-05-08T23:58:11.016Z,44.77
